createdAt,value
2016-07-29T00:01:19.188Z,17.2
2016-07-29T00:16:24.898Z,17.2
2016-07-29T00:46:19.223Z,17
2016-07-29T01:01:14.607Z,17
2016-07-29T01:16:20.928Z,17
2016-07-29T01:31:19.224Z,16.9
2016-07-29T01:46:27.629Z,16.9
2016-07-29T02:01:16.638Z,16.9
2016-07-29T02:16:19.270Z,16.9
2016-07-29T02:31:14.653Z,16.8
2016-07-29T02:46:14.648Z,16.8
2016-07-29T03:01:14.690Z,16.7
2016-07-29T03:16:14.668Z,16.8
2016-07-29T03:31:14.679Z,16.6
2016-07-29T03:46:14.689Z,16.6
2016-07-29T04:01:19.351Z,16.6
2016-07-29T04:16:14.707Z,16.6
2016-07-29T04:31:19.336Z,16.6
2016-07-29T04:46:19.350Z,16.6
2016-07-29T05:01:14.738Z,16.6
2016-07-29T05:16:14.779Z,16.5
2016-07-29T05:31:24.788Z,16.5
2016-07-29T05:46:14.768Z,16.7
2016-07-29T06:01:14.770Z,17
2016-07-29T06:16:19.411Z,17.2
2016-07-29T06:31:19.358Z,17.2
2016-07-29T06:46:19.356Z,17.4
2016-07-29T07:01:16.777Z,17.7
2016-07-29T07:16:19.439Z,17.8
2016-07-29T07:31:19.370Z,18
2016-07-29T07:46:18.801Z,18.2
2016-07-29T08:01:27.600Z,18.7
2016-07-29T08:16:19.874Z,19.8
2016-07-29T08:31:14.788Z,19.2
2016-07-29T08:46:19.741Z,18.4
2016-07-29T09:01:19.752Z,18.5
2016-07-29T09:16:19.798Z,18.3
2016-07-29T09:31:16.949Z,18.1
2016-07-29T09:46:16.953Z,18.3
2016-07-29T10:01:16.955Z,18.9
2016-07-29T10:16:14.866Z,19.3
2016-07-29T10:31:14.920Z,19.6
2016-07-29T10:46:14.880Z,19.6
2016-07-29T11:01:18.888Z,20.3
2016-07-29T11:16:27.723Z,20.6
2016-07-29T11:31:16.944Z,21.3
2016-07-29T11:46:21.009Z,22
2016-07-29T12:01:21.021Z,21.2
2016-07-29T12:16:19.506Z,21.2
2016-07-29T12:31:14.928Z,21.9
2016-07-29T12:46:19.539Z,22.6
2016-07-29T13:01:17.039Z,22.8
2016-07-29T13:16:14.955Z,22.9
2016-07-29T13:31:17.917Z,22.4
2016-07-29T13:46:14.966Z,21.4
2016-07-29T14:01:15.015Z,21.4
2016-07-29T14:16:14.982Z,22.1
2016-07-29T14:31:19.589Z,21.7
2016-07-29T14:46:16.998Z,21.7
2016-07-29T15:01:21.268Z,21.5
2016-07-29T15:16:19.650Z,21.9
2016-07-29T15:31:19.974Z,22.1
2016-07-29T15:46:19.980Z,22.4
2016-07-29T16:01:19.644Z,22.7
2016-07-29T16:16:20.056Z,22.2
2016-07-29T16:31:21.277Z,22.3
2016-07-29T16:46:21.421Z,22.1
2016-07-29T17:01:35.839Z,22.1
2016-07-29T17:16:15.112Z,22.3
2016-07-29T17:31:15.136Z,22.4
2016-07-29T17:46:31.719Z,22.4
2016-07-29T18:01:35.829Z,22.2
2016-07-29T18:16:15.145Z,22
2016-07-29T18:31:15.146Z,21.8
2016-07-29T18:46:15.180Z,21.5
2016-07-29T19:01:15.168Z,21.2
2016-07-29T19:16:15.122Z,20.9
2016-07-29T19:31:19.804Z,20.6
2016-07-29T19:46:15.124Z,20.1
2016-07-29T20:01:19.712Z,19.7
2016-07-29T20:16:15.129Z,19.4
2016-07-29T20:31:19.798Z,19.3
2016-07-29T20:46:15.226Z,19.3
2016-07-29T21:01:32.081Z,19.4
2016-07-29T21:16:28.039Z,19.3
2016-07-29T21:31:28.151Z,19.2
2016-07-29T21:46:21.455Z,19.1
2016-07-29T22:01:29.313Z,19
2016-07-29T22:16:17.320Z,18.9
2016-07-29T22:31:24.446Z,18.8
2016-07-29T22:46:19.892Z,18.7
2016-07-29T23:01:17.261Z,18.6
2016-07-29T23:16:28.488Z,18.6
2016-07-29T23:31:15.309Z,18.6
2016-07-29T23:46:33.765Z,18.5
